sensor_id;sensor_type;location;lat;lon;timestamp;pressure;altitude;pressure_sealevel;temperature;humidity
30819;BME280;17546;42.674;23.284;2022-10-28T00:00:47;95966.22;;;20.24;38.38
30819;BME280;17546;42.674;23.284;2022-10-28T00:03:13;95973.97;;;20.18;38.59
30819;BME280;17546;42.674;23.284;2022-10-28T00:05:38;95972.66;;;20.19;38.24
30819;BME280;17546;42.674;23.284;2022-10-28T00:08:04;95966.34;;;20.13;38.41
30819;BME280;17546;42.674;23.284;2022-10-28T00:10:29;95973.34;;;20.25;38.28
30819;BME280;17546;42.674;23.284;2022-10-28T00:12:55;95966.97;;;20.25;38.31
30819;BME280;17546;42.674;23.284;2022-10-28T00:15:20;95966.97;;;20.06;38.60
30819;BME280;17546;42.674;23.284;2022-10-28T00:17:46;95963.03;;;19.95;38.95
30819;BME280;17546;42.674;23.284;2022-10-28T00:20:11;95959.38;;;20.00;38.62
30819;BME280;17546;42.674;23.284;2022-10-28T00:22:36;95958.63;;;19.75;39.33
30819;BME280;17546;42.674;23.284;2022-10-28T00:25:03;95958.22;;;19.90;38.81
30819;BME280;17546;42.674;23.284;2022-10-28T00:27:28;95964.66;;;19.85;38.99
30819;BME280;17546;42.674;23.284;2022-10-28T00:29:54;95949.91;;;19.79;39.24
30819;BME280;17546;42.674;23.284;2022-10-28T00:32:20;95955.63;;;19.68;39.60
30819;BME280;17546;42.674;23.284;2022-10-28T00:34:46;95956.22;;;19.85;39.24
30819;BME280;17546;42.674;23.284;2022-10-28T00:37:11;95949.44;;;19.75;39.12
30819;BME280;17546;42.674;23.284;2022-10-28T00:39:37;95957.59;;;19.54;39.63
30819;BME280;17546;42.674;23.284;2022-10-28T00:42:02;95956.38;;;19.68;39.53
30819;BME280;17546;42.674;23.284;2022-10-28T00:44:53;95959.75;;;19.67;39.71
30819;BME280;17546;42.674;23.284;2022-10-28T00:49:54;95953.09;;;19.70;39.54
30819;BME280;17546;42.674;23.284;2022-10-28T00:52:25;95963.38;;;19.61;39.66
30819;BME280;17546;42.674;23.284;2022-10-28T00:54:52;95959.69;;;19.72;39.47
30819;BME280;17546;42.674;23.284;2022-10-28T00:57:31;95958.59;;;19.56;39.48
30819;BME280;17546;42.674;23.284;2022-10-28T00:59:58;95944.69;;;19.39;39.62
30819;BME280;17546;42.674;23.284;2022-10-28T01:02:24;95961.88;;;19.36;39.83
30819;BME280;17546;42.674;23.284;2022-10-28T01:04:50;95962.34;;;19.65;39.39
30819;BME280;17546;42.674;23.284;2022-10-28T01:07:16;95964.34;;;19.64;39.32
30819;BME280;17546;42.674;23.284;2022-10-28T01:09:42;95961.03;;;19.66;39.49
30819;BME280;17546;42.674;23.284;2022-10-28T01:12:47;95951.72;;;19.52;39.62
30819;BME280;17546;42.674;23.284;2022-10-28T01:23:09;95951.78;;;19.46;39.56
30819;BME280;17546;42.674;23.284;2022-10-28T01:31:14;95956.50;;;19.38;39.86
30819;BME280;17546;42.674;23.284;2022-10-28T01:33:51;95954.94;;;19.12;40.25
30819;BME280;17546;42.674;23.284;2022-10-28T01:41:53;95958.34;;;19.05;40.42
30819;BME280;17546;42.674;23.284;2022-10-28T01:44:36;95965.34;;;19.17;39.99
30819;BME280;17546;42.674;23.284;2022-10-28T01:47:13;95961.97;;;19.25;39.90
30819;BME280;17546;42.674;23.284;2022-10-28T01:50:50;95964.91;;;19.38;39.56
30819;BME280;17546;42.674;23.284;2022-10-28T01:52:58;95958.00;;;19.39;39.54
30819;BME280;17546;42.674;23.284;2022-10-28T01:55:27;95967.94;;;19.40;39.53
30819;BME280;17546;42.674;23.284;2022-10-28T01:57:57;95958.75;;;19.39;39.63
30819;BME280;17546;42.674;23.284;2022-10-28T02:00:23;95970.47;;;19.44;39.54
30819;BME280;17546;42.674;23.284;2022-10-28T02:02:50;95970.22;;;19.41;39.38
30819;BME280;17546;42.674;23.284;2022-10-28T02:10:42;95959.84;;;19.31;39.81
30819;BME280;17546;42.674;23.284;2022-10-28T02:13:15;95966.41;;;19.14;40.24
30819;BME280;17546;42.674;23.284;2022-10-28T02:21:07;95958.38;;;19.24;39.73
30819;BME280;17546;42.674;23.284;2022-10-28T02:23:44;95963.50;;;19.26;39.77
30819;BME280;17546;42.674;23.284;2022-10-28T02:26:32;95958.97;;;19.17;39.69
30819;BME280;17546;42.674;23.284;2022-10-28T02:31:35;95967.66;;;19.19;39.86
30819;BME280;17546;42.674;23.284;2022-10-28T02:34:13;95963.38;;;19.12;39.67
30819;BME280;17546;42.674;23.284;2022-10-28T02:36:44;95958.69;;;19.20;39.58
30819;BME280;17546;42.674;23.284;2022-10-28T02:39:13;95968.97;;;19.12;40.01
30819;BME280;17546;42.674;23.284;2022-10-28T02:44:16;95975.81;;;18.87;40.18
30819;BME280;17546;42.674;23.284;2022-10-28T02:46:44;95976.97;;;19.03;39.63
30819;BME280;17546;42.674;23.284;2022-10-28T02:49:12;95972.69;;;18.96;39.77
30819;BME280;17546;42.674;23.284;2022-10-28T02:51:53;95974.50;;;18.93;39.88
30819;BME280;17546;42.674;23.284;2022-10-28T02:54:24;95968.75;;;18.74;40.08
30819;BME280;17546;42.674;23.284;2022-10-28T02:57:06;95964.81;;;18.53;40.78
30819;BME280;17546;42.674;23.284;2022-10-28T02:59:33;95975.41;;;18.71;40.28
30819;BME280;17546;42.674;23.284;2022-10-28T03:01:58;95980.75;;;18.75;40.33
30819;BME280;17546;42.674;23.284;2022-10-28T03:04:24;95967.63;;;18.53;40.92
30819;BME280;17546;42.674;23.284;2022-10-28T03:06:49;95974.00;;;18.53;40.87
30819;BME280;17546;42.674;23.284;2022-10-28T03:09:15;95977.03;;;18.61;40.69
30819;BME280;17546;42.674;23.284;2022-10-28T03:11:40;95975.50;;;18.60;40.57
30819;BME280;17546;42.674;23.284;2022-10-28T03:14:06;95965.03;;;18.61;40.52
30819;BME280;17546;42.674;23.284;2022-10-28T03:16:31;95965.50;;;18.65;40.33
30819;BME280;17546;42.674;23.284;2022-10-28T03:18:57;95973.50;;;18.55;40.63
30819;BME280;17546;42.674;23.284;2022-10-28T03:21:22;95968.91;;;18.52;40.49
30819;BME280;17546;42.674;23.284;2022-10-28T03:23:47;95970.94;;;18.51;40.53
30819;BME280;17546;42.674;23.284;2022-10-28T03:26:13;95970.47;;;18.47;40.95
30819;BME280;17546;42.674;23.284;2022-10-28T03:28:38;95964.34;;;18.49;40.68
30819;BME280;17546;42.674;23.284;2022-10-28T03:31:04;95971.00;;;18.46;40.86
30819;BME280;17546;42.674;23.284;2022-10-28T03:33:29;95972.06;;;18.37;40.88
30819;BME280;17546;42.674;23.284;2022-10-28T03:35:55;95971.75;;;18.46;40.65
30819;BME280;17546;42.674;23.284;2022-10-28T03:38:20;95972.59;;;18.35;41.09
30819;BME280;17546;42.674;23.284;2022-10-28T03:40:49;95967.25;;;18.32;40.84
30819;BME280;17546;42.674;23.284;2022-10-28T03:43:16;95976.19;;;18.30;41.14
30819;BME280;17546;42.674;23.284;2022-10-28T03:45:42;95971.09;;;18.29;40.82
30819;BME280;17546;42.674;23.284;2022-10-28T03:48:07;95977.09;;;18.08;41.38
30819;BME280;17546;42.674;23.284;2022-10-28T03:50:33;95979.06;;;18.19;41.17
30819;BME280;17546;42.674;23.284;2022-10-28T03:52:58;95984.84;;;18.32;40.85
30819;BME280;17546;42.674;23.284;2022-10-28T03:55:24;95977.59;;;18.07;41.36
30819;BME280;17546;42.674;23.284;2022-10-28T03:57:50;95977.09;;;18.03;41.81
30819;BME280;17546;42.674;23.284;2022-10-28T04:00:16;95975.03;;;18.09;41.28
30819;BME280;17546;42.674;23.284;2022-10-28T04:02:47;95981.81;;;18.30;40.77
30819;BME280;17546;42.674;23.284;2022-10-28T04:05:13;95984.38;;;18.28;41.16
30819;BME280;17546;42.674;23.284;2022-10-28T04:07:38;95985.44;;;18.20;41.32
30819;BME280;17546;42.674;23.284;2022-10-28T04:10:04;95977.84;;;18.09;41.34
30819;BME280;17546;42.674;23.284;2022-10-28T04:12:29;95973.47;;;18.13;41.13
30819;BME280;17546;42.674;23.284;2022-10-28T04:14:55;95983.63;;;18.22;40.84
30819;BME280;17546;42.674;23.284;2022-10-28T04:17:20;95987.47;;;18.19;40.76
30819;BME280;17546;42.674;23.284;2022-10-28T04:19:46;95993.34;;;18.21;40.96
30819;BME280;17546;42.674;23.284;2022-10-28T04:22:11;95985.25;;;18.06;41.32
30819;BME280;17546;42.674;23.284;2022-10-28T04:24:36;95991.59;;;18.07;41.05
30819;BME280;17546;42.674;23.284;2022-10-28T04:27:02;95980.34;;;18.18;40.95
30819;BME280;17546;42.674;23.284;2022-10-28T04:29:27;95989.97;;;18.28;40.64
30819;BME280;17546;42.674;23.284;2022-10-28T04:31:53;95989.06;;;18.03;41.19
30819;BME280;17546;42.674;23.284;2022-10-28T04:34:18;95994.44;;;18.01;41.08
30819;BME280;17546;42.674;23.284;2022-10-28T04:36:43;95991.41;;;17.99;41.37
30819;BME280;17546;42.674;23.284;2022-10-28T04:39:12;95996.50;;;17.95;41.21
30819;BME280;17546;42.674;23.284;2022-10-28T04:41:37;95993.16;;;18.02;41.02
30819;BME280;17546;42.674;23.284;2022-10-28T04:44:02;95987.38;;;17.83;41.59
30819;BME280;17546;42.674;23.284;2022-10-28T04:46:28;95977.09;;;18.03;41.18
30819;BME280;17546;42.674;23.284;2022-10-28T04:48:53;95977.94;;;17.86;41.53
30819;BME280;17546;42.674;23.284;2022-10-28T04:51:18;95978.91;;;17.94;41.06
30819;BME280;17546;42.674;23.284;2022-10-28T04:53:44;95983.72;;;18.05;41.10
30819;BME280;17546;42.674;23.284;2022-10-28T04:56:09;95984.28;;;17.81;41.67
30819;BME280;17546;42.674;23.284;2022-10-28T04:58:35;95984.50;;;18.06;40.92
30819;BME280;17546;42.674;23.284;2022-10-28T05:01:05;95995.41;;;18.09;40.96
30819;BME280;17546;42.674;23.284;2022-10-28T05:03:31;95987.03;;;18.04;41.17
30819;BME280;17546;42.674;23.284;2022-10-28T05:05:56;95995.22;;;18.02;41.01
30819;BME280;17546;42.674;23.284;2022-10-28T05:08:22;95985.56;;;17.86;41.11
30819;BME280;17546;42.674;23.284;2022-10-28T05:10:47;95978.44;;;17.79;41.37
30819;BME280;17546;42.674;23.284;2022-10-28T05:13:16;95986.34;;;17.81;41.23
30819;BME280;17546;42.674;23.284;2022-10-28T05:15:41;95991.44;;;17.76;41.38
30819;BME280;17546;42.674;23.284;2022-10-28T05:18:07;95993.75;;;17.78;41.46
30819;BME280;17546;42.674;23.284;2022-10-28T05:20:32;95997.03;;;17.88;41.27
30819;BME280;17546;42.674;23.284;2022-10-28T05:22:57;95993.47;;;17.93;41.01
30819;BME280;17546;42.674;23.284;2022-10-28T05:25:23;96002.63;;;17.99;40.92
30819;BME280;17546;42.674;23.284;2022-10-28T05:27:48;95994.50;;;17.84;41.39
30819;BME280;17546;42.674;23.284;2022-10-28T05:30:14;96006.75;;;17.75;41.64
30819;BME280;17546;42.674;23.284;2022-10-28T05:32:39;96005.94;;;17.98;41.15
30819;BME280;17546;42.674;23.284;2022-10-28T05:35:06;96002.84;;;18.01;41.45
30819;BME280;17546;42.674;23.284;2022-10-28T05:37:31;96005.69;;;17.95;41.48
30819;BME280;17546;42.674;23.284;2022-10-28T05:39:57;96012.25;;;18.09;41.14
30819;BME280;17546;42.674;23.284;2022-10-28T05:42:23;96009.19;;;18.07;41.21
30819;BME280;17546;42.674;23.284;2022-10-28T05:44:48;96011.75;;;18.05;41.40
30819;BME280;17546;42.674;23.284;2022-10-28T05:47:13;96010.94;;;18.16;40.83
30819;BME280;17546;42.674;23.284;2022-10-28T05:49:39;96022.19;;;18.10;41.07
30819;BME280;17546;42.674;23.284;2022-10-28T05:52:04;96024.97;;;18.16;41.11
30819;BME280;17546;42.674;23.284;2022-10-28T05:54:30;96019.66;;;18.07;41.60
30819;BME280;17546;42.674;23.284;2022-10-28T05:56:55;96020.63;;;18.15;41.20
30819;BME280;17546;42.674;23.284;2022-10-28T05:59:20;96022.66;;;18.20;40.95
30819;BME280;17546;42.674;23.284;2022-10-28T06:01:46;96016.53;;;18.16;41.17
30819;BME280;17546;42.674;23.284;2022-10-28T06:04:11;96025.69;;;18.22;41.20
30819;BME280;17546;42.674;23.284;2022-10-28T06:06:37;96029.25;;;18.28;41.38
30819;BME280;17546;42.674;23.284;2022-10-28T06:09:02;96029.00;;;18.26;41.11
30819;BME280;17546;42.674;23.284;2022-10-28T06:11:28;96035.13;;;18.25;40.93
30819;BME280;17546;42.674;23.284;2022-10-28T06:13:54;96039.91;;;18.35;40.91
30819;BME280;17546;42.674;23.284;2022-10-28T06:16:19;96041.97;;;18.29;41.12
30819;BME280;17546;42.674;23.284;2022-10-28T06:18:44;96049.13;;;18.30;41.03
30819;BME280;17546;42.674;23.284;2022-10-28T06:21:10;96051.38;;;18.37;40.88
30819;BME280;17546;42.674;23.284;2022-10-28T06:23:35;96056.19;;;18.43;41.13
30819;BME280;17546;42.674;23.284;2022-10-28T06:26:03;96055.66;;;18.50;40.93
30819;BME280;17546;42.674;23.284;2022-10-28T06:28:29;96056.13;;;18.54;40.99
30819;BME280;17546;42.674;23.284;2022-10-28T06:31:01;96043.63;;;18.55;40.65
30819;BME280;17546;42.674;23.284;2022-10-28T06:33:37;96063.47;;;18.68;40.36
30819;BME280;17546;42.674;23.284;2022-10-28T06:36:04;96068.81;;;18.72;40.70
30819;BME280;17546;42.674;23.284;2022-10-28T06:38:29;96064.19;;;18.74;40.41
30819;BME280;17546;42.674;23.284;2022-10-28T06:41:11;96065.72;;;18.81;40.39
30819;BME280;17546;42.674;23.284;2022-10-28T06:43:37;96053.69;;;18.86;40.14
30819;BME280;17546;42.674;23.284;2022-10-28T06:46:03;96048.06;;;18.86;40.17
30819;BME280;17546;42.674;23.284;2022-10-28T06:48:30;96045.50;;;18.88;40.18
30819;BME280;17546;42.674;23.284;2022-10-28T06:50:55;96057.41;;;19.00;40.14
30819;BME280;17546;42.674;23.284;2022-10-28T06:53:22;96044.66;;;18.99;39.99
30819;BME280;17546;42.674;23.284;2022-10-28T06:55:52;96052.50;;;19.06;39.98
30819;BME280;17546;42.674;23.284;2022-10-28T06:58:18;96046.72;;;18.98;40.19
30819;BME280;17546;42.674;23.284;2022-10-28T07:00:43;96050.47;;;19.07;39.71
30819;BME280;17546;42.674;23.284;2022-10-28T07:03:09;96053.31;;;19.01;40.08
30819;BME280;17546;42.674;23.284;2022-10-28T07:05:35;96045.38;;;19.05;40.04
30819;BME280;17546;42.674;23.284;2022-10-28T07:08:00;96046.56;;;19.15;39.85
30819;BME280;17546;42.674;23.284;2022-10-28T07:10:25;96053.81;;;19.05;39.87
30819;BME280;17546;42.674;23.284;2022-10-28T07:12:51;96048.94;;;19.06;39.69
30819;BME280;17546;42.674;23.284;2022-10-28T07:15:17;96048.09;;;19.16;39.47
30819;BME280;17546;42.674;23.284;2022-10-28T07:17:42;96055.44;;;19.25;39.59
30819;BME280;17546;42.674;23.284;2022-10-28T07:20:08;96063.00;;;19.36;39.69
30819;BME280;17546;42.674;23.284;2022-10-28T07:22:34;96055.50;;;19.44;39.40
30819;BME280;17546;42.674;23.284;2022-10-28T07:24:59;96062.44;;;19.43;39.42
30819;BME280;17546;42.674;23.284;2022-10-28T07:27:25;96060.97;;;19.36;39.38
30819;BME280;17546;42.674;23.284;2022-10-28T07:29:50;96057.94;;;19.29;39.31
30819;BME280;17546;42.674;23.284;2022-10-28T07:32:15;96058.56;;;19.46;39.41
30819;BME280;17546;42.674;23.284;2022-10-28T07:34:41;96054.97;;;19.51;39.50
30819;BME280;17546;42.674;23.284;2022-10-28T07:37:06;96054.97;;;19.51;39.04
30819;BME280;17546;42.674;23.284;2022-10-28T07:39:32;96061.13;;;19.44;38.99
30819;BME280;17546;42.674;23.284;2022-10-28T07:41:57;96059.28;;;19.52;39.25
30819;BME280;17546;42.674;23.284;2022-10-28T07:44:24;96066.28;;;19.40;39.49
30819;BME280;17546;42.674;23.284;2022-10-28T07:46:49;96051.56;;;19.58;39.06
30819;BME280;17546;42.674;23.284;2022-10-28T07:49:15;96056.50;;;19.47;39.52
30819;BME280;17546;42.674;23.284;2022-10-28T07:51:41;96051.72;;;19.41;39.38
30819;BME280;17546;42.674;23.284;2022-10-28T07:54:07;96049.91;;;19.69;38.93
30819;BME280;17546;42.674;23.284;2022-10-28T07:56:32;96047.16;;;19.63;38.98
30819;BME280;17546;42.674;23.284;2022-10-28T07:58:59;96051.97;;;19.68;39.13
30819;BME280;17546;42.674;23.284;2022-10-28T08:01:24;96049.59;;;19.78;38.85
30819;BME280;17546;42.674;23.284;2022-10-28T08:03:49;96049.13;;;19.74;38.79
30819;BME280;17546;42.674;23.284;2022-10-28T08:06:18;96050.28;;;19.84;38.69
30819;BME280;17546;42.674;23.284;2022-10-28T08:08:46;96054.34;;;19.89;38.46
30819;BME280;17546;42.674;23.284;2022-10-28T08:11:14;96051.75;;;19.91;38.86
30819;BME280;17546;42.674;23.284;2022-10-28T08:13:40;96057.84;;;19.95;38.59
30819;BME280;17546;42.674;23.284;2022-10-28T08:16:06;96057.38;;;19.91;38.39
30819;BME280;17546;42.674;23.284;2022-10-28T08:18:33;96058.91;;;19.92;38.48
30819;BME280;17546;42.674;23.284;2022-10-28T08:21:00;96058.50;;;20.07;38.13
30819;BME280;17546;42.674;23.284;2022-10-28T08:23:27;96045.03;;;19.75;38.52
30819;BME280;17546;42.674;23.284;2022-10-28T08:25:52;96050.63;;;19.99;38.23
30819;BME280;17546;42.674;23.284;2022-10-28T08:28:18;96055.31;;;20.16;38.27
30819;BME280;17546;42.674;23.284;2022-10-28T08:30:44;96065.13;;;20.09;38.31
30819;BME280;17546;42.674;23.284;2022-10-28T08:33:10;96062.38;;;19.79;38.43
30819;BME280;17546;42.674;23.284;2022-10-28T08:35:35;96055.22;;;19.48;39.24
30819;BME280;17546;42.674;23.284;2022-10-28T08:38:02;96058.94;;;19.61;38.88
30819;BME280;17546;42.674;23.284;2022-10-28T08:48:33;96048.72;;;20.32;37.90
30819;BME280;17546;42.674;23.284;2022-10-28T08:53:43;96039.81;;;20.28;38.12
30819;BME280;17546;42.674;23.284;2022-10-28T08:56:25;96043.97;;;20.65;37.24
30819;BME280;17546;42.674;23.284;2022-10-28T08:58:53;96043.66;;;20.69;37.10
30819;BME280;17546;42.674;23.284;2022-10-28T09:04:09;96047.31;;;20.82;37.25
30819;BME280;17546;42.674;23.284;2022-10-28T09:06:38;96043.97;;;21.16;37.04
30819;BME280;17546;42.674;23.284;2022-10-28T09:09:04;96039.19;;;21.11;37.09
30819;BME280;17546;42.674;23.284;2022-10-28T09:16:48;96033.91;;;21.53;36.19
30819;BME280;17546;42.674;23.284;2022-10-28T09:19:38;96022.84;;;21.69;36.35
30819;BME280;17546;42.674;23.284;2022-10-28T09:33:44;96004.31;;;22.74;34.23
30819;BME280;17546;42.674;23.284;2022-10-28T09:36:16;95999.91;;;22.86;33.89
30819;BME280;17546;42.674;23.284;2022-10-28T09:38:43;95997.81;;;23.71;33.79
30819;BME280;17546;42.674;23.284;2022-10-28T09:41:16;96000.56;;;24.21;32.98
30819;BME280;17546;42.674;23.284;2022-10-28T09:43:53;95991.34;;;24.64;31.94
30819;BME280;17546;42.674;23.284;2022-10-28T09:46:21;95998.97;;;24.92;31.50
30819;BME280;17546;42.674;23.284;2022-10-28T09:48:49;95982.69;;;24.33;31.41
30819;BME280;17546;42.674;23.284;2022-10-28T09:51:58;95982.31;;;24.89;31.71
30819;BME280;17546;42.674;23.284;2022-10-28T09:54:13;95970.31;;;25.19;31.45
30819;BME280;17546;42.674;23.284;2022-10-28T09:56:39;95977.28;;;25.18;30.32
30819;BME280;17546;42.674;23.284;2022-10-28T09:59:05;95969.13;;;25.68;30.44
30819;BME280;17546;42.674;23.284;2022-10-28T10:01:33;95969.72;;;25.51;29.75
30819;BME280;17546;42.674;23.284;2022-10-28T10:04:00;95969.50;;;25.88;30.17
30819;BME280;17546;42.674;23.284;2022-10-28T10:06:35;95954.78;;;26.30;29.16
30819;BME280;17546;42.674;23.284;2022-10-28T10:09:02;95965.72;;;26.41;28.47
30819;BME280;17546;42.674;23.284;2022-10-28T10:13:53;95953.50;;;26.23;28.63
30819;BME280;17546;42.674;23.284;2022-10-28T10:16:39;95951.22;;;26.70;27.85
30819;BME280;17546;42.674;23.284;2022-10-28T10:19:08;95947.13;;;27.21;27.82
30819;BME280;17546;42.674;23.284;2022-10-28T10:21:42;95951.19;;;27.03;28.00
30819;BME280;17546;42.674;23.284;2022-10-28T10:24:31;95944.00;;;27.02;27.43
30819;BME280;17546;42.674;23.284;2022-10-28T10:29:34;95939.41;;;27.06;27.71
30819;BME280;17546;42.674;23.284;2022-10-28T10:32:15;95937.69;;;27.11;27.09
30819;BME280;17546;42.674;23.284;2022-10-28T10:34:57;95940.16;;;27.57;26.64
30819;BME280;17546;42.674;23.284;2022-10-28T10:37:25;95938.78;;;27.40;26.71
30819;BME280;17546;42.674;23.284;2022-10-28T10:40:18;95940.53;;;27.78;26.37
30819;BME280;17546;42.674;23.284;2022-10-28T10:42:46;95928.63;;;27.72;26.37
30819;BME280;17546;42.674;23.284;2022-10-28T10:47:40;95920.44;;;27.09;27.07
30819;BME280;17546;42.674;23.284;2022-10-28T10:50:26;95918.94;;;27.33;26.65
30819;BME280;17546;42.674;23.284;2022-10-28T10:52:58;95926.25;;;27.44;26.88
30819;BME280;17546;42.674;23.284;2022-10-28T10:57:52;95916.56;;;27.64;26.40
30819;BME280;17546;42.674;23.284;2022-10-28T11:00:19;95911.50;;;26.87;27.07
30819;BME280;17546;42.674;23.284;2022-10-28T11:02:47;95912.78;;;27.19;26.81
30819;BME280;17546;42.674;23.284;2022-10-28T11:05:19;95917.41;;;27.57;26.50
30819;BME280;17546;42.674;23.284;2022-10-28T11:07:47;95899.13;;;27.17;26.44
30819;BME280;17546;42.674;23.284;2022-10-28T11:13:01;95900.00;;;26.45;26.97
30819;BME280;17546;42.674;23.284;2022-10-28T11:15:28;95893.44;;;27.25;26.51
30819;BME280;17546;42.674;23.284;2022-10-28T11:18:01;95895.53;;;27.42;26.01
30819;BME280;17546;42.674;23.284;2022-10-28T11:21:09;95882.50;;;27.56;26.09
30819;BME280;17546;42.674;23.284;2022-10-28T11:23:56;95890.78;;;27.62;25.91
30819;BME280;17546;42.674;23.284;2022-10-28T11:26:27;95889.28;;;27.61;25.97
30819;BME280;17546;42.674;23.284;2022-10-28T11:32:03;95879.22;;;27.42;24.77
30819;BME280;17546;42.674;23.284;2022-10-28T11:56:57;95855.72;;;26.42;25.05
30819;BME280;17546;42.674;23.284;2022-10-28T12:02:16;95857.56;;;26.79;24.46
30819;BME280;17546;42.674;23.284;2022-10-28T12:04:59;95864.63;;;26.71;24.17
30819;BME280;17546;42.674;23.284;2022-10-28T12:07:45;95855.75;;;26.92;24.16
30819;BME280;17546;42.674;23.284;2022-10-28T12:21:42;95849.25;;;26.41;24.42
30819;BME280;17546;42.674;23.284;2022-10-28T12:24:14;95845.66;;;26.48;24.04
30819;BME280;17546;42.674;23.284;2022-10-28T12:26:44;95833.97;;;26.36;24.42
30819;BME280;17546;42.674;23.284;2022-10-28T12:29:35;95839.78;;;26.13;25.22
30819;BME280;17546;42.674;23.284;2022-10-28T12:32:11;95844.47;;;26.18;25.28
30819;BME280;17546;42.674;23.284;2022-10-28T12:34:41;95835.34;;;26.28;25.15
30819;BME280;17546;42.674;23.284;2022-10-28T12:37:17;95841.56;;;26.34;25.57
30819;BME280;17546;42.674;23.284;2022-10-28T12:40:19;95839.06;;;26.38;25.28
30819;BME280;17546;42.674;23.284;2022-10-28T12:45:23;95835.69;;;26.32;25.77
30819;BME280;17546;42.674;23.284;2022-10-28T12:47:56;95832.19;;;26.49;25.79
30819;BME280;17546;42.674;23.284;2022-10-28T12:50:39;95831.63;;;26.17;26.01
30819;BME280;17546;42.674;23.284;2022-10-28T12:53:35;95825.63;;;26.38;25.97
30819;BME280;17546;42.674;23.284;2022-10-28T12:56:08;95822.91;;;26.48;25.31
30819;BME280;17546;42.674;23.284;2022-10-28T13:01:16;95823.81;;;25.93;26.40
30819;BME280;17546;42.674;23.284;2022-10-28T13:03:42;95817.16;;;25.34;26.91
30819;BME280;17546;42.674;23.284;2022-10-28T13:25:55;95818.28;;;25.95;26.48
30819;BME280;17546;42.674;23.284;2022-10-28T13:28:26;95816.50;;;26.15;25.99
30819;BME280;17546;42.674;23.284;2022-10-28T13:30:54;95805.94;;;26.08;25.91
30819;BME280;17546;42.674;23.284;2022-10-28T13:33:24;95809.16;;;25.56;26.38
30819;BME280;17546;42.674;23.284;2022-10-28T13:35:50;95815.84;;;25.84;25.88
30819;BME280;17546;42.674;23.284;2022-10-28T13:38:21;95811.56;;;26.15;25.53
30819;BME280;17546;42.674;23.284;2022-10-28T13:51:51;95806.22;;;25.31;26.86
30819;BME280;17546;42.674;23.284;2022-10-28T13:54:26;95808.50;;;25.81;26.50
30819;BME280;17546;42.674;23.284;2022-10-28T13:56:53;95807.53;;;25.86;26.20
30819;BME280;17546;42.674;23.284;2022-10-28T13:59:26;95810.28;;;26.09;26.10
30819;BME280;17546;42.674;23.284;2022-10-28T14:02:00;95786.81;;;26.08;25.75
30819;BME280;17546;42.674;23.284;2022-10-28T14:04:32;95794.75;;;26.10;25.78
30819;BME280;17546;42.674;23.284;2022-10-28T14:09:35;95798.31;;;26.18;26.18
30819;BME280;17546;42.674;23.284;2022-10-28T14:14:33;95795.56;;;26.28;25.90
30819;BME280;17546;42.674;23.284;2022-10-28T14:16:59;95793.09;;;25.99;26.10
30819;BME280;17546;42.674;23.284;2022-10-28T14:19:24;95800.22;;;26.15;25.71
30819;BME280;17546;42.674;23.284;2022-10-28T14:22:00;95794.56;;;26.08;25.76
30819;BME280;17546;42.674;23.284;2022-10-28T14:38:34;95785.28;;;26.15;26.12
30819;BME280;17546;42.674;23.284;2022-10-28T14:41:02;95787.94;;;26.13;26.04
30819;BME280;17546;42.674;23.284;2022-10-28T14:49:31;95782.06;;;26.11;26.54
30819;BME280;17546;42.674;23.284;2022-10-28T14:52:05;95779.44;;;26.05;26.38
30819;BME280;17546;42.674;23.284;2022-10-28T14:54:43;95785.38;;;26.00;26.59
30819;BME280;17546;42.674;23.284;2022-10-28T14:57:11;95779.88;;;25.94;26.29
30819;BME280;17546;42.674;23.284;2022-10-28T14:59:42;95781.06;;;25.91;26.66
30819;BME280;17546;42.674;23.284;2022-10-28T15:04:40;95782.22;;;25.80;26.73
30819;BME280;17546;42.674;23.284;2022-10-28T15:07:11;95784.63;;;25.84;26.69
30819;BME280;17546;42.674;23.284;2022-10-28T15:09:38;95771.06;;;25.74;26.60
30819;BME280;17546;42.674;23.284;2022-10-28T15:12:07;95781.84;;;25.76;26.68
30819;BME280;17546;42.674;23.284;2022-10-28T15:14:39;95788.31;;;25.69;26.81
30819;BME280;17546;42.674;23.284;2022-10-28T15:19:36;95785.13;;;25.57;27.06
30819;BME280;17546;42.674;23.284;2022-10-28T15:22:15;95786.47;;;25.56;27.28
30819;BME280;17546;42.674;23.284;2022-10-28T15:27:18;95790.31;;;25.43;27.58
30819;BME280;17546;42.674;23.284;2022-10-28T15:29:45;95780.31;;;25.34;27.65
30819;BME280;17546;42.674;23.284;2022-10-28T15:32:24;95780.16;;;25.25;27.79
30819;BME280;17546;42.674;23.284;2022-10-28T15:34:50;95781.28;;;25.22;27.89
30819;BME280;17546;42.674;23.284;2022-10-28T15:37:27;95778.25;;;25.20;27.95
30819;BME280;17546;42.674;23.284;2022-10-28T15:40:09;95779.38;;;25.09;28.05
30819;BME280;17546;42.674;23.284;2022-10-28T15:42:57;95776.97;;;24.98;28.40
30819;BME280;17546;42.674;23.284;2022-10-28T15:45:26;95777.53;;;24.88;28.46
30819;BME280;17546;42.674;23.284;2022-10-28T15:47:53;95784.34;;;24.85;28.57
30819;BME280;17546;42.674;23.284;2022-10-28T15:50:29;95790.59;;;24.76;28.73
30819;BME280;17546;42.674;23.284;2022-10-28T15:55:31;95800.59;;;24.62;29.38
30819;BME280;17546;42.674;23.284;2022-10-28T15:57:59;95807.22;;;24.49;29.11
30819;BME280;17546;42.674;23.284;2022-10-28T16:00:31;95813.78;;;24.44;29.06
30819;BME280;17546;42.674;23.284;2022-10-28T16:03:04;95816.78;;;24.38;29.22
30819;BME280;17546;42.674;23.284;2022-10-28T16:08:22;95818.31;;;24.39;29.33
30819;BME280;17546;42.674;23.284;2022-10-28T16:13:46;95816.59;;;24.36;29.21
30819;BME280;17546;42.674;23.284;2022-10-28T16:16:26;95818.69;;;24.28;29.61
30819;BME280;17546;42.674;23.284;2022-10-28T16:19:06;95823.19;;;24.16;30.00